Glover, Mississippi
Current Conditions -  °F | °C
As of 3:12 PM on Monday 22 Dec 2014 (Local Time) from KMEM Reporting Station
Overcast Overcast  
Wind Chill: 57°   Ceiling: 5500
Heat Index: 57°   Visibility: 10mi
Dew Point: 52°   Wind: 17mph
Humidity: 82%   Direction: 160°SSE
Pressure: 29.61"   Gusts: 24mph
Location:  34.9578°N, 90.1057°W
Report Text: KMEM 222112Z 16015G21KT 10SM SCT013 BKN055 OVC070 14/11 A2961 RMK AO2
Loading
Personal Weather Stations






























Interactive Weather Map New forecast layout! Learn more

10-Day Weather Forecast

Advertisements
Track Severe Weather on mobile